sensor_id;sensor_type;location;lat;lon;timestamp;P1;durP1;ratioP1;P2;durP2;ratioP2
11743;SDS011;5929;51.906;7.674;2022-12-11T00:01:18;108.82;;;41.80;;
11743;SDS011;5929;51.906;7.674;2022-12-11T00:03:46;113.55;;;43.40;;
11743;SDS011;5929;51.906;7.674;2022-12-11T00:06:15;116.00;;;41.50;;
11743;SDS011;5929;51.906;7.674;2022-12-11T00:08:46;112.95;;;41.05;;
11743;SDS011;5929;51.906;7.674;2022-12-11T00:11:17;110.00;;;43.33;;
11743;SDS011;5929;51.906;7.674;2022-12-11T00:13:44;110.10;;;38.88;;
11743;SDS011;5929;51.906;7.674;2022-12-11T00:16:11;104.05;;;39.10;;
11743;SDS011;5929;51.906;7.674;2022-12-11T00:18:38;107.57;;;40.55;;
11743;SDS011;5929;51.906;7.674;2022-12-11T00:21:05;113.97;;;41.50;;
11743;SDS011;5929;51.906;7.674;2022-12-11T00:23:36;108.05;;;38.95;;
11743;SDS011;5929;51.906;7.674;2022-12-11T00:26:04;111.13;;;40.85;;
11743;SDS011;5929;51.906;7.674;2022-12-11T00:28:33;115.50;;;41.75;;
11743;SDS011;5929;51.906;7.674;2022-12-11T00:31:02;116.70;;;39.15;;
11743;SDS011;5929;51.906;7.674;2022-12-11T00:33:30;124.70;;;42.38;;
11743;SDS011;5929;51.906;7.674;2022-12-11T00:35:57;125.13;;;43.00;;
11743;SDS011;5929;51.906;7.674;2022-12-11T00:38:24;129.13;;;46.17;;
11743;SDS011;5929;51.906;7.674;2022-12-11T00:40:51;123.53;;;43.42;;
11743;SDS011;5929;51.906;7.674;2022-12-11T00:43:18;127.93;;;43.67;;
11743;SDS011;5929;51.906;7.674;2022-12-11T00:45:46;129.65;;;42.58;;
11743;SDS011;5929;51.906;7.674;2022-12-11T00:48:13;135.88;;;41.05;;
11743;SDS011;5929;51.906;7.674;2022-12-11T00:50:40;124.07;;;42.45;;
11743;SDS011;5929;51.906;7.674;2022-12-11T00:53:07;122.03;;;39.10;;
11743;SDS011;5929;51.906;7.674;2022-12-11T00:55:35;112.80;;;36.45;;
11743;SDS011;5929;51.906;7.674;2022-12-11T00:58:03;105.05;;;36.33;;
11743;SDS011;5929;51.906;7.674;2022-12-11T01:00:30;109.57;;;34.75;;
11743;SDS011;5929;51.906;7.674;2022-12-11T01:02:58;102.55;;;35.00;;
11743;SDS011;5929;51.906;7.674;2022-12-11T01:05:25;100.72;;;35.42;;
11743;SDS011;5929;51.906;7.674;2022-12-11T01:07:52;94.03;;;31.95;;
11743;SDS011;5929;51.906;7.674;2022-12-11T01:10:19;116.80;;;40.03;;
11743;SDS011;5929;51.906;7.674;2022-12-11T01:12:49;144.95;;;58.15;;
11743;SDS011;5929;51.906;7.674;2022-12-11T01:15:16;90.07;;;33.17;;
11743;SDS011;5929;51.906;7.674;2022-12-11T01:17:43;95.82;;;34.65;;
11743;SDS011;5929;51.906;7.674;2022-12-11T01:20:11;93.63;;;34.45;;
11743;SDS011;5929;51.906;7.674;2022-12-11T01:22:38;104.78;;;34.53;;
11743;SDS011;5929;51.906;7.674;2022-12-11T01:25:05;106.28;;;35.00;;
11743;SDS011;5929;51.906;7.674;2022-12-11T01:27:34;98.53;;;32.90;;
11743;SDS011;5929;51.906;7.674;2022-12-11T01:30:01;106.40;;;36.10;;
11743;SDS011;5929;51.906;7.674;2022-12-11T01:32:29;102.28;;;33.05;;
11743;SDS011;5929;51.906;7.674;2022-12-11T01:34:56;92.50;;;34.97;;
11743;SDS011;5929;51.906;7.674;2022-12-11T01:37:24;89.75;;;33.25;;
11743;SDS011;5929;51.906;7.674;2022-12-11T01:39:51;96.15;;;32.90;;
11743;SDS011;5929;51.906;7.674;2022-12-11T01:42:18;94.32;;;31.05;;
11743;SDS011;5929;51.906;7.674;2022-12-11T01:47:50;99.28;;;34.50;;
11743;SDS011;5929;51.906;7.674;2022-12-11T01:50:19;82.13;;;30.58;;
11743;SDS011;5929;51.906;7.674;2022-12-11T01:52:47;89.32;;;32.00;;
11743;SDS011;5929;51.906;7.674;2022-12-11T01:55:15;88.10;;;31.35;;
11743;SDS011;5929;51.906;7.674;2022-12-11T01:57:43;88.43;;;32.28;;
11743;SDS011;5929;51.906;7.674;2022-12-11T02:00:14;92.10;;;31.42;;
11743;SDS011;5929;51.906;7.674;2022-12-11T02:02:41;86.85;;;33.92;;
11743;SDS011;5929;51.906;7.674;2022-12-11T02:05:08;97.65;;;35.65;;
11743;SDS011;5929;51.906;7.674;2022-12-11T02:07:36;101.97;;;33.55;;
11743;SDS011;5929;51.906;7.674;2022-12-11T02:10:08;101.40;;;36.75;;
11743;SDS011;5929;51.906;7.674;2022-12-11T02:12:38;88.93;;;31.95;;
11743;SDS011;5929;51.906;7.674;2022-12-11T02:15:11;84.10;;;30.90;;
11743;SDS011;5929;51.906;7.674;2022-12-11T02:17:47;75.10;;;28.73;;
11743;SDS011;5929;51.906;7.674;2022-12-11T02:20:21;78.32;;;30.85;;
11743;SDS011;5929;51.906;7.674;2022-12-11T02:26:11;76.22;;;27.58;;
11743;SDS011;5929;51.906;7.674;2022-12-11T02:28:52;77.43;;;29.13;;
11743;SDS011;5929;51.906;7.674;2022-12-11T02:31:22;75.72;;;29.90;;
11743;SDS011;5929;51.906;7.674;2022-12-11T02:33:54;77.80;;;29.42;;
11743;SDS011;5929;51.906;7.674;2022-12-11T02:36:25;74.50;;;29.10;;
11743;SDS011;5929;51.906;7.674;2022-12-11T02:38:55;77.68;;;28.27;;
11743;SDS011;5929;51.906;7.674;2022-12-11T02:41:23;80.68;;;28.63;;
11743;SDS011;5929;51.906;7.674;2022-12-11T02:43:54;75.05;;;30.08;;
11743;SDS011;5929;51.906;7.674;2022-12-11T02:46:23;80.32;;;30.10;;
11743;SDS011;5929;51.906;7.674;2022-12-11T02:48:51;82.50;;;31.00;;
11743;SDS011;5929;51.906;7.674;2022-12-11T02:51:20;75.50;;;31.42;;
11743;SDS011;5929;51.906;7.674;2022-12-11T02:53:52;73.78;;;29.08;;
11743;SDS011;5929;51.906;7.674;2022-12-11T02:56:23;78.97;;;28.83;;
11743;SDS011;5929;51.906;7.674;2022-12-11T02:58:56;71.65;;;27.33;;
11743;SDS011;5929;51.906;7.674;2022-12-11T03:01:26;63.75;;;25.13;;
11743;SDS011;5929;51.906;7.674;2022-12-11T03:03:53;62.97;;;23.88;;
11743;SDS011;5929;51.906;7.674;2022-12-11T03:06:23;67.05;;;26.83;;
11743;SDS011;5929;51.906;7.674;2022-12-11T03:08:55;64.70;;;24.85;;
11743;SDS011;5929;51.906;7.674;2022-12-11T03:11:24;68.90;;;27.13;;
11743;SDS011;5929;51.906;7.674;2022-12-11T03:13:51;69.72;;;26.50;;
11743;SDS011;5929;51.906;7.674;2022-12-11T03:16:21;64.97;;;26.23;;
11743;SDS011;5929;51.906;7.674;2022-12-11T03:18:56;79.55;;;27.05;;
11743;SDS011;5929;51.906;7.674;2022-12-11T03:21:32;72.18;;;27.90;;
11743;SDS011;5929;51.906;7.674;2022-12-11T03:24:04;72.00;;;27.63;;
11743;SDS011;5929;51.906;7.674;2022-12-11T03:26:37;69.15;;;26.77;;
11743;SDS011;5929;51.906;7.674;2022-12-11T03:29:09;70.07;;;25.77;;
11743;SDS011;5929;51.906;7.674;2022-12-11T03:31:42;64.32;;;26.45;;
11743;SDS011;5929;51.906;7.674;2022-12-11T03:34:15;70.00;;;26.98;;
11743;SDS011;5929;51.906;7.674;2022-12-11T03:36:47;74.47;;;28.02;;
11743;SDS011;5929;51.906;7.674;2022-12-11T03:39:15;68.03;;;26.27;;
11743;SDS011;5929;51.906;7.674;2022-12-11T03:41:47;69.13;;;27.40;;
11743;SDS011;5929;51.906;7.674;2022-12-11T03:44:17;77.63;;;30.50;;
11743;SDS011;5929;51.906;7.674;2022-12-11T03:46:47;76.03;;;28.58;;
11743;SDS011;5929;51.906;7.674;2022-12-11T03:49:17;91.55;;;31.35;;
11743;SDS011;5929;51.906;7.674;2022-12-11T03:51:50;74.82;;;28.90;;
11743;SDS011;5929;51.906;7.674;2022-12-11T03:54:19;78.07;;;29.27;;
11743;SDS011;5929;51.906;7.674;2022-12-11T03:56:49;71.25;;;28.00;;
11743;SDS011;5929;51.906;7.674;2022-12-11T03:59:18;53.67;;;22.30;;
11743;SDS011;5929;51.906;7.674;2022-12-11T04:01:46;59.90;;;22.73;;
11743;SDS011;5929;51.906;7.674;2022-12-11T04:04:13;65.63;;;23.92;;
11743;SDS011;5929;51.906;7.674;2022-12-11T04:06:40;58.22;;;22.17;;
11743;SDS011;5929;51.906;7.674;2022-12-11T04:09:07;58.65;;;21.65;;
11743;SDS011;5929;51.906;7.674;2022-12-11T04:11:34;53.60;;;20.58;;
11743;SDS011;5929;51.906;7.674;2022-12-11T04:14:01;60.85;;;23.15;;
11743;SDS011;5929;51.906;7.674;2022-12-11T04:16:48;71.20;;;25.83;;
11743;SDS011;5929;51.906;7.674;2022-12-11T04:19:14;64.35;;;25.17;;
11743;SDS011;5929;51.906;7.674;2022-12-11T04:21:59;68.63;;;26.27;;
11743;SDS011;5929;51.906;7.674;2022-12-11T04:25:00;67.93;;;25.10;;
11743;SDS011;5929;51.906;7.674;2022-12-11T04:27:27;63.85;;;24.88;;
11743;SDS011;5929;51.906;7.674;2022-12-11T04:30:13;56.45;;;23.60;;
11743;SDS011;5929;51.906;7.674;2022-12-11T04:32:42;62.13;;;25.85;;
11743;SDS011;5929;51.906;7.674;2022-12-11T04:35:10;56.28;;;23.77;;
11743;SDS011;5929;51.906;7.674;2022-12-11T04:37:37;69.05;;;27.00;;
11743;SDS011;5929;51.906;7.674;2022-12-11T04:40:05;60.42;;;24.73;;
11743;SDS011;5929;51.906;7.674;2022-12-11T04:42:34;60.88;;;24.80;;
11743;SDS011;5929;51.906;7.674;2022-12-11T04:45:01;68.53;;;25.85;;
11743;SDS011;5929;51.906;7.674;2022-12-11T04:47:29;60.85;;;24.42;;
11743;SDS011;5929;51.906;7.674;2022-12-11T04:49:57;61.20;;;25.52;;
11743;SDS011;5929;51.906;7.674;2022-12-11T04:52:24;57.42;;;23.23;;
11743;SDS011;5929;51.906;7.674;2022-12-11T04:54:51;53.45;;;21.35;;
11743;SDS011;5929;51.906;7.674;2022-12-11T04:57:20;54.20;;;22.25;;
11743;SDS011;5929;51.906;7.674;2022-12-11T04:59:46;55.58;;;23.42;;
11743;SDS011;5929;51.906;7.674;2022-12-11T05:02:13;54.00;;;24.33;;
11743;SDS011;5929;51.906;7.674;2022-12-11T05:04:40;62.38;;;25.23;;
11743;SDS011;5929;51.906;7.674;2022-12-11T05:07:09;55.35;;;24.02;;
11743;SDS011;5929;51.906;7.674;2022-12-11T05:09:36;59.28;;;23.05;;
11743;SDS011;5929;51.906;7.674;2022-12-11T05:12:02;55.35;;;23.15;;
11743;SDS011;5929;51.906;7.674;2022-12-11T05:14:29;54.92;;;21.10;;
11743;SDS011;5929;51.906;7.674;2022-12-11T05:16:57;51.60;;;21.10;;
11743;SDS011;5929;51.906;7.674;2022-12-11T05:19:23;53.00;;;21.50;;
11743;SDS011;5929;51.906;7.674;2022-12-11T05:21:51;53.33;;;22.08;;
11743;SDS011;5929;51.906;7.674;2022-12-11T05:24:19;56.00;;;22.65;;
11743;SDS011;5929;51.906;7.674;2022-12-11T05:26:46;58.38;;;22.30;;
11743;SDS011;5929;51.906;7.674;2022-12-11T05:29:15;55.08;;;22.70;;
11743;SDS011;5929;51.906;7.674;2022-12-11T05:31:42;53.67;;;22.10;;
11743;SDS011;5929;51.906;7.674;2022-12-11T05:34:09;51.95;;;23.08;;
11743;SDS011;5929;51.906;7.674;2022-12-11T05:36:36;52.67;;;22.17;;
11743;SDS011;5929;51.906;7.674;2022-12-11T05:39:02;56.45;;;21.05;;
11743;SDS011;5929;51.906;7.674;2022-12-11T05:41:31;60.00;;;23.30;;
11743;SDS011;5929;51.906;7.674;2022-12-11T05:43:58;56.53;;;20.38;;
11743;SDS011;5929;51.906;7.674;2022-12-11T05:46:26;56.78;;;20.75;;
11743;SDS011;5929;51.906;7.674;2022-12-11T05:48:55;61.35;;;22.42;;
11743;SDS011;5929;51.906;7.674;2022-12-11T05:51:24;58.33;;;21.83;;
11743;SDS011;5929;51.906;7.674;2022-12-11T05:53:51;61.33;;;21.90;;
11743;SDS011;5929;51.906;7.674;2022-12-11T05:56:19;60.00;;;23.45;;
11743;SDS011;5929;51.906;7.674;2022-12-11T05:58:49;53.88;;;21.85;;
11743;SDS011;5929;51.906;7.674;2022-12-11T06:01:16;58.65;;;22.98;;
11743;SDS011;5929;51.906;7.674;2022-12-11T06:03:45;62.03;;;22.95;;
11743;SDS011;5929;51.906;7.674;2022-12-11T06:06:12;55.05;;;22.08;;
11743;SDS011;5929;51.906;7.674;2022-12-11T06:08:40;63.97;;;22.55;;
11743;SDS011;5929;51.906;7.674;2022-12-11T06:11:07;63.72;;;22.42;;
11743;SDS011;5929;51.906;7.674;2022-12-11T06:13:34;66.00;;;22.63;;
11743;SDS011;5929;51.906;7.674;2022-12-11T06:16:03;55.58;;;21.50;;
11743;SDS011;5929;51.906;7.674;2022-12-11T06:18:30;53.40;;;22.42;;
11743;SDS011;5929;51.906;7.674;2022-12-11T06:21:00;57.83;;;22.27;;
11743;SDS011;5929;51.906;7.674;2022-12-11T06:23:27;56.10;;;20.83;;
11743;SDS011;5929;51.906;7.674;2022-12-11T06:25:54;60.65;;;21.83;;
11743;SDS011;5929;51.906;7.674;2022-12-11T06:28:20;51.58;;;21.73;;
11743;SDS011;5929;51.906;7.674;2022-12-11T06:30:47;58.58;;;21.25;;
11743;SDS011;5929;51.906;7.674;2022-12-11T06:33:15;50.47;;;21.02;;
11743;SDS011;5929;51.906;7.674;2022-12-11T06:35:42;50.83;;;20.52;;
11743;SDS011;5929;51.906;7.674;2022-12-11T06:38:09;65.60;;;21.40;;
11743;SDS011;5929;51.906;7.674;2022-12-11T06:40:36;60.53;;;21.00;;
11743;SDS011;5929;51.906;7.674;2022-12-11T06:43:03;54.92;;;19.52;;
11743;SDS011;5929;51.906;7.674;2022-12-11T06:45:30;56.00;;;19.38;;
11743;SDS011;5929;51.906;7.674;2022-12-11T06:47:57;55.90;;;19.67;;
11743;SDS011;5929;51.906;7.674;2022-12-11T06:50:25;57.35;;;20.83;;
11743;SDS011;5929;51.906;7.674;2022-12-11T06:52:52;58.17;;;20.35;;
11743;SDS011;5929;51.906;7.674;2022-12-11T06:55:18;52.08;;;20.10;;
11743;SDS011;5929;51.906;7.674;2022-12-11T06:57:45;56.80;;;20.60;;
11743;SDS011;5929;51.906;7.674;2022-12-11T07:00:13;52.03;;;19.20;;
11743;SDS011;5929;51.906;7.674;2022-12-11T07:02:42;48.25;;;19.60;;
11743;SDS011;5929;51.906;7.674;2022-12-11T07:05:09;56.22;;;20.20;;
11743;SDS011;5929;51.906;7.674;2022-12-11T07:07:37;59.72;;;21.15;;
11743;SDS011;5929;51.906;7.674;2022-12-11T07:10:07;51.83;;;20.65;;
11743;SDS011;5929;51.906;7.674;2022-12-11T07:12:35;56.47;;;21.48;;
11743;SDS011;5929;51.906;7.674;2022-12-11T07:15:02;55.40;;;19.48;;
11743;SDS011;5929;51.906;7.674;2022-12-11T07:17:30;59.67;;;21.65;;
11743;SDS011;5929;51.906;7.674;2022-12-11T07:19:56;60.33;;;21.33;;
11743;SDS011;5929;51.906;7.674;2022-12-11T07:22:23;60.60;;;21.05;;
11743;SDS011;5929;51.906;7.674;2022-12-11T07:24:51;58.58;;;21.23;;
11743;SDS011;5929;51.906;7.674;2022-12-11T07:27:18;53.80;;;21.05;;
11743;SDS011;5929;51.906;7.674;2022-12-11T07:29:45;58.15;;;20.45;;
11743;SDS011;5929;51.906;7.674;2022-12-11T07:32:12;62.10;;;21.83;;
11743;SDS011;5929;51.906;7.674;2022-12-11T07:34:39;54.85;;;21.52;;
11743;SDS011;5929;51.906;7.674;2022-12-11T07:37:08;56.17;;;22.33;;
11743;SDS011;5929;51.906;7.674;2022-12-11T07:39:35;63.47;;;22.30;;
11743;SDS011;5929;51.906;7.674;2022-12-11T07:42:03;55.85;;;21.95;;
11743;SDS011;5929;51.906;7.674;2022-12-11T07:44:30;49.70;;;19.35;;
11743;SDS011;5929;51.906;7.674;2022-12-11T07:46:57;59.95;;;20.92;;
11743;SDS011;5929;51.906;7.674;2022-12-11T07:49:24;56.92;;;20.30;;
11743;SDS011;5929;51.906;7.674;2022-12-11T07:51:51;58.92;;;22.38;;
11743;SDS011;5929;51.906;7.674;2022-12-11T07:54:17;55.92;;;21.30;;
11743;SDS011;5929;51.906;7.674;2022-12-11T07:56:45;55.53;;;20.75;;
11743;SDS011;5929;51.906;7.674;2022-12-11T07:59:14;51.33;;;20.40;;
11743;SDS011;5929;51.906;7.674;2022-12-11T08:01:41;62.55;;;22.63;;
11743;SDS011;5929;51.906;7.674;2022-12-11T08:04:08;58.28;;;20.50;;
11743;SDS011;5929;51.906;7.674;2022-12-11T08:06:39;55.10;;;20.95;;
11743;SDS011;5929;51.906;7.674;2022-12-11T08:09:10;60.72;;;20.77;;
11743;SDS011;5929;51.906;7.674;2022-12-11T08:11:39;55.00;;;21.98;;
11743;SDS011;5929;51.906;7.674;2022-12-11T08:14:06;57.05;;;20.88;;
11743;SDS011;5929;51.906;7.674;2022-12-11T08:16:34;59.95;;;22.23;;
11743;SDS011;5929;51.906;7.674;2022-12-11T08:19:02;56.80;;;21.25;;
11743;SDS011;5929;51.906;7.674;2022-12-11T08:21:29;57.33;;;21.85;;
11743;SDS011;5929;51.906;7.674;2022-12-11T08:23:56;55.67;;;21.63;;
11743;SDS011;5929;51.906;7.674;2022-12-11T08:26:25;59.72;;;22.30;;
11743;SDS011;5929;51.906;7.674;2022-12-11T08:28:55;55.90;;;21.70;;
11743;SDS011;5929;51.906;7.674;2022-12-11T08:31:24;55.28;;;20.77;;
11743;SDS011;5929;51.906;7.674;2022-12-11T08:33:53;53.90;;;19.95;;
11743;SDS011;5929;51.906;7.674;2022-12-11T08:36:21;60.00;;;21.52;;
11743;SDS011;5929;51.906;7.674;2022-12-11T08:38:49;60.08;;;21.92;;
11743;SDS011;5929;51.906;7.674;2022-12-11T08:41:19;60.03;;;21.85;;
11743;SDS011;5929;51.906;7.674;2022-12-11T08:43:47;66.82;;;22.15;;
11743;SDS011;5929;51.906;7.674;2022-12-11T08:46:16;53.03;;;21.15;;
11743;SDS011;5929;51.906;7.674;2022-12-11T08:48:43;53.58;;;21.10;;
11743;SDS011;5929;51.906;7.674;2022-12-11T08:51:12;56.60;;;22.85;;
11743;SDS011;5929;51.906;7.674;2022-12-11T08:53:41;60.63;;;21.80;;
11743;SDS011;5929;51.906;7.674;2022-12-11T08:56:09;57.28;;;20.92;;
11743;SDS011;5929;51.906;7.674;2022-12-11T08:58:37;59.88;;;22.23;;
11743;SDS011;5929;51.906;7.674;2022-12-11T09:01:05;56.70;;;23.08;;
11743;SDS011;5929;51.906;7.674;2022-12-11T09:03:32;60.28;;;23.08;;
11743;SDS011;5929;51.906;7.674;2022-12-11T09:06:02;66.80;;;24.38;;
11743;SDS011;5929;51.906;7.674;2022-12-11T09:08:31;55.05;;;22.00;;
11743;SDS011;5929;51.906;7.674;2022-12-11T09:11:01;58.55;;;21.92;;
11743;SDS011;5929;51.906;7.674;2022-12-11T09:13:29;62.42;;;23.38;;
11743;SDS011;5929;51.906;7.674;2022-12-11T09:15:55;57.53;;;20.92;;
11743;SDS011;5929;51.906;7.674;2022-12-11T09:18:22;61.20;;;23.58;;
11743;SDS011;5929;51.906;7.674;2022-12-11T09:20:56;55.97;;;23.05;;
11743;SDS011;5929;51.906;7.674;2022-12-11T09:23:23;59.20;;;22.55;;
11743;SDS011;5929;51.906;7.674;2022-12-11T09:25:52;63.30;;;23.60;;
11743;SDS011;5929;51.906;7.674;2022-12-11T09:28:18;56.42;;;22.85;;
11743;SDS011;5929;51.906;7.674;2022-12-11T09:30:45;53.92;;;21.10;;
11743;SDS011;5929;51.906;7.674;2022-12-11T09:33:12;61.30;;;24.05;;
11743;SDS011;5929;51.906;7.674;2022-12-11T09:35:39;61.03;;;24.13;;
11743;SDS011;5929;51.906;7.674;2022-12-11T09:38:06;57.72;;;23.05;;
11743;SDS011;5929;51.906;7.674;2022-12-11T09:40:33;62.40;;;24.40;;
11743;SDS011;5929;51.906;7.674;2022-12-11T09:43:08;60.97;;;23.92;;
11743;SDS011;5929;51.906;7.674;2022-12-11T09:45:44;55.85;;;23.02;;
11743;SDS011;5929;51.906;7.674;2022-12-11T09:48:11;65.22;;;24.27;;
11743;SDS011;5929;51.906;7.674;2022-12-11T09:50:43;59.28;;;23.00;;
11743;SDS011;5929;51.906;7.674;2022-12-11T09:53:14;55.67;;;22.08;;
11743;SDS011;5929;51.906;7.674;2022-12-11T09:55:45;62.97;;;22.80;;
11743;SDS011;5929;51.906;7.674;2022-12-11T09:58:21;61.03;;;24.92;;
11743;SDS011;5929;51.906;7.674;2022-12-11T10:00:54;61.17;;;23.83;;
11743;SDS011;5929;51.906;7.674;2022-12-11T10:03:29;67.72;;;28.58;;
11743;SDS011;5929;51.906;7.674;2022-12-11T10:06:21;61.35;;;24.23;;
11743;SDS011;5929;51.906;7.674;2022-12-11T10:08:56;65.82;;;23.88;;
11743;SDS011;5929;51.906;7.674;2022-12-11T10:11:34;64.32;;;25.55;;
11743;SDS011;5929;51.906;7.674;2022-12-11T10:14:12;59.97;;;23.75;;
11743;SDS011;5929;51.906;7.674;2022-12-11T10:16:48;67.03;;;24.95;;
11743;SDS011;5929;51.906;7.674;2022-12-11T10:19:20;66.57;;;25.10;;
11743;SDS011;5929;51.906;7.674;2022-12-11T10:21:51;64.68;;;24.77;;
11743;SDS011;5929;51.906;7.674;2022-12-11T10:24:19;56.65;;;23.40;;
11743;SDS011;5929;51.906;7.674;2022-12-11T10:26:50;67.72;;;26.50;;
11743;SDS011;5929;51.906;7.674;2022-12-11T10:29:23;67.15;;;23.85;;
11743;SDS011;5929;51.906;7.674;2022-12-11T10:31:51;66.30;;;25.52;;
11743;SDS011;5929;51.906;7.674;2022-12-11T10:34:24;60.28;;;24.95;;
11743;SDS011;5929;51.906;7.674;2022-12-11T10:36:56;72.38;;;26.77;;
11743;SDS011;5929;51.906;7.674;2022-12-11T10:39:23;74.35;;;27.25;;
11743;SDS011;5929;51.906;7.674;2022-12-11T10:41:51;61.05;;;24.08;;
11743;SDS011;5929;51.906;7.674;2022-12-11T10:44:19;69.10;;;27.42;;
11743;SDS011;5929;51.906;7.674;2022-12-11T10:46:59;65.38;;;26.08;;
11743;SDS011;5929;51.906;7.674;2022-12-11T10:49:29;64.18;;;26.35;;
11743;SDS011;5929;51.906;7.674;2022-12-11T10:51:57;66.68;;;27.65;;
11743;SDS011;5929;51.906;7.674;2022-12-11T10:54:30;68.47;;;27.85;;
11743;SDS011;5929;51.906;7.674;2022-12-11T10:56:59;72.20;;;27.20;;
11743;SDS011;5929;51.906;7.674;2022-12-11T10:59:32;69.07;;;27.85;;
11743;SDS011;5929;51.906;7.674;2022-12-11T11:02:04;73.25;;;27.63;;
11743;SDS011;5929;51.906;7.674;2022-12-11T11:04:42;73.85;;;29.33;;
11743;SDS011;5929;51.906;7.674;2022-12-11T11:07:11;76.70;;;30.02;;
11743;SDS011;5929;51.906;7.674;2022-12-11T11:09:40;77.00;;;31.00;;
11743;SDS011;5929;51.906;7.674;2022-12-11T11:12:18;67.47;;;29.52;;
11743;SDS011;5929;51.906;7.674;2022-12-11T11:14:57;78.82;;;28.38;;
11743;SDS011;5929;51.906;7.674;2022-12-11T11:17:25;83.60;;;29.50;;
11743;SDS011;5929;51.906;7.674;2022-12-11T11:19:52;68.50;;;27.75;;
11743;SDS011;5929;51.906;7.674;2022-12-11T11:22:21;73.15;;;27.65;;
11743;SDS011;5929;51.906;7.674;2022-12-11T11:24:51;73.78;;;28.80;;
11743;SDS011;5929;51.906;7.674;2022-12-11T11:27:23;79.18;;;28.83;;
11743;SDS011;5929;51.906;7.674;2022-12-11T11:29:54;74.20;;;28.85;;
11743;SDS011;5929;51.906;7.674;2022-12-11T11:32:24;71.88;;;28.83;;
11743;SDS011;5929;51.906;7.674;2022-12-11T11:35:04;67.95;;;27.58;;
11743;SDS011;5929;51.906;7.674;2022-12-11T11:37:41;78.63;;;28.52;;
11743;SDS011;5929;51.906;7.674;2022-12-11T11:40:12;70.18;;;28.83;;
11743;SDS011;5929;51.906;7.674;2022-12-11T11:42:45;68.65;;;29.50;;
11743;SDS011;5929;51.906;7.674;2022-12-11T11:45:18;74.28;;;27.90;;
11743;SDS011;5929;51.906;7.674;2022-12-11T11:47:51;72.65;;;28.80;;
11743;SDS011;5929;51.906;7.674;2022-12-11T11:50:24;74.05;;;29.40;;
11743;SDS011;5929;51.906;7.674;2022-12-11T11:52:56;76.18;;;29.52;;
11743;SDS011;5929;51.906;7.674;2022-12-11T11:55:31;77.72;;;30.30;;
11743;SDS011;5929;51.906;7.674;2022-12-11T11:58:06;71.22;;;28.95;;
11743;SDS011;5929;51.906;7.674;2022-12-11T12:00:38;76.35;;;29.83;;
11743;SDS011;5929;51.906;7.674;2022-12-11T12:03:08;74.57;;;28.38;;
11743;SDS011;5929;51.906;7.674;2022-12-11T12:05:38;76.95;;;30.85;;
11743;SDS011;5929;51.906;7.674;2022-12-11T12:08:15;71.07;;;30.55;;
11743;SDS011;5929;51.906;7.674;2022-12-11T12:10:50;71.13;;;28.90;;
11743;SDS011;5929;51.906;7.674;2022-12-11T12:13:27;75.40;;;28.70;;
11743;SDS011;5929;51.906;7.674;2022-12-11T12:16:01;81.22;;;31.88;;
11743;SDS011;5929;51.906;7.674;2022-12-11T12:18:34;82.00;;;29.48;;
11743;SDS011;5929;51.906;7.674;2022-12-11T12:21:12;71.95;;;29.75;;
11743;SDS011;5929;51.906;7.674;2022-12-11T12:23:48;76.05;;;30.25;;
11743;SDS011;5929;51.906;7.674;2022-12-11T12:26:24;81.03;;;31.20;;
11743;SDS011;5929;51.906;7.674;2022-12-11T12:28:57;76.40;;;30.83;;
11743;SDS011;5929;51.906;7.674;2022-12-11T12:31:38;80.07;;;30.23;;
11743;SDS011;5929;51.906;7.674;2022-12-11T12:34:16;68.88;;;27.17;;
11743;SDS011;5929;51.906;7.674;2022-12-11T12:36:53;76.00;;;30.60;;
11743;SDS011;5929;51.906;7.674;2022-12-11T12:39:30;74.07;;;29.85;;
11743;SDS011;5929;51.906;7.674;2022-12-11T12:42:07;79.13;;;30.50;;
11743;SDS011;5929;51.906;7.674;2022-12-11T12:44:46;75.28;;;31.27;;
11743;SDS011;5929;51.906;7.674;2022-12-11T12:47:22;76.97;;;30.50;;
11743;SDS011;5929;51.906;7.674;2022-12-11T12:49:53;79.20;;;30.83;;
11743;SDS011;5929;51.906;7.674;2022-12-11T12:52:24;76.63;;;31.48;;
11743;SDS011;5929;51.906;7.674;2022-12-11T12:54:56;81.25;;;30.70;;
11743;SDS011;5929;51.906;7.674;2022-12-11T12:57:43;82.40;;;30.80;;
11743;SDS011;5929;51.906;7.674;2022-12-11T13:00:24;84.95;;;32.80;;
11743;SDS011;5929;51.906;7.674;2022-12-11T13:02:52;78.85;;;31.20;;
11743;SDS011;5929;51.906;7.674;2022-12-11T13:05:22;82.95;;;31.73;;
11743;SDS011;5929;51.906;7.674;2022-12-11T13:07:52;85.40;;;32.10;;
11743;SDS011;5929;51.906;7.674;2022-12-11T13:10:22;75.18;;;30.73;;
11743;SDS011;5929;51.906;7.674;2022-12-11T13:13:00;84.72;;;33.55;;
11743;SDS011;5929;51.906;7.674;2022-12-11T13:15:29;79.63;;;31.40;;
11743;SDS011;5929;51.906;7.674;2022-12-11T13:17:59;81.15;;;31.38;;
11743;SDS011;5929;51.906;7.674;2022-12-11T13:20:30;75.47;;;30.27;;
11743;SDS011;5929;51.906;7.674;2022-12-11T13:23:13;72.78;;;31.25;;
11743;SDS011;5929;51.906;7.674;2022-12-11T13:25:50;83.20;;;30.83;;
11743;SDS011;5929;51.906;7.674;2022-12-11T13:28:20;77.35;;;29.38;;
11743;SDS011;5929;51.906;7.674;2022-12-11T13:30:56;81.22;;;33.13;;
11743;SDS011;5929;51.906;7.674;2022-12-11T13:33:25;84.32;;;31.65;;
11743;SDS011;5929;51.906;7.674;2022-12-11T13:38:54;72.18;;;31.00;;
11743;SDS011;5929;51.906;7.674;2022-12-11T13:41:24;79.50;;;31.83;;
11743;SDS011;5929;51.906;7.674;2022-12-11T13:43:52;78.60;;;32.10;;
11743;SDS011;5929;51.906;7.674;2022-12-11T13:46:23;72.93;;;30.13;;
11743;SDS011;5929;51.906;7.674;2022-12-11T13:48:53;71.88;;;31.38;;
11743;SDS011;5929;51.906;7.674;2022-12-11T13:51:25;80.10;;;30.67;;
11743;SDS011;5929;51.906;7.674;2022-12-11T13:54:01;85.28;;;31.92;;
11743;SDS011;5929;51.906;7.674;2022-12-11T13:56:29;73.40;;;29.80;;
11743;SDS011;5929;51.906;7.674;2022-12-11T13:58:56;84.13;;;32.25;;
11743;SDS011;5929;51.906;7.674;2022-12-11T14:01:23;69.20;;;29.50;;
11743;SDS011;5929;51.906;7.674;2022-12-11T14:03:53;71.95;;;31.65;;
11743;SDS011;5929;51.906;7.674;2022-12-11T14:06:22;77.00;;;33.83;;
11743;SDS011;5929;51.906;7.674;2022-12-11T14:08:52;73.25;;;32.83;;
11743;SDS011;5929;51.906;7.674;2022-12-11T14:11:22;83.18;;;34.13;;
11743;SDS011;5929;51.906;7.674;2022-12-11T14:13:52;74.38;;;32.50;;
11743;SDS011;5929;51.906;7.674;2022-12-11T14:16:22;68.85;;;30.48;;
11743;SDS011;5929;51.906;7.674;2022-12-11T14:18:51;78.60;;;30.02;;
11743;SDS011;5929;51.906;7.674;2022-12-11T14:21:20;72.07;;;29.73;;
11743;SDS011;5929;51.906;7.674;2022-12-11T14:23:50;78.00;;;31.48;;
11743;SDS011;5929;51.906;7.674;2022-12-11T14:26:20;79.25;;;31.20;;
11743;SDS011;5929;51.906;7.674;2022-12-11T14:28:48;68.22;;;30.60;;
11743;SDS011;5929;51.906;7.674;2022-12-11T14:31:17;75.75;;;30.55;;
11743;SDS011;5929;51.906;7.674;2022-12-11T14:33:50;72.68;;;30.60;;
11743;SDS011;5929;51.906;7.674;2022-12-11T14:36:20;77.65;;;31.42;;
11743;SDS011;5929;51.906;7.674;2022-12-11T14:38:53;69.28;;;30.67;;
11743;SDS011;5929;51.906;7.674;2022-12-11T14:41:25;80.35;;;29.48;;
11743;SDS011;5929;51.906;7.674;2022-12-11T14:43:56;78.38;;;32.25;;
11743;SDS011;5929;51.906;7.674;2022-12-11T14:46:28;86.38;;;33.33;;
11743;SDS011;5929;51.906;7.674;2022-12-11T14:49:00;71.13;;;31.67;;
11743;SDS011;5929;51.906;7.674;2022-12-11T14:51:31;74.35;;;30.95;;
11743;SDS011;5929;51.906;7.674;2022-12-11T14:54:05;73.72;;;30.77;;
11743;SDS011;5929;51.906;7.674;2022-12-11T14:56:36;68.22;;;32.72;;
11743;SDS011;5929;51.906;7.674;2022-12-11T14:59:04;74.88;;;30.17;;